createdAt,value
2022-11-01T00:01:19.455Z,72.00
2022-11-01T00:03:55.535Z,63.80
2022-11-01T00:06:31.357Z,66.90
2022-11-01T00:09:08.087Z,67.40
2022-11-01T00:11:44.176Z,72.30
2022-11-01T00:14:22.451Z,62.40
2022-11-01T00:16:58.195Z,65.20
2022-11-01T00:19:34.038Z,69.90
2022-11-01T00:22:09.843Z,69.80
2022-11-01T00:24:45.733Z,66.20
2022-11-01T00:27:21.461Z,70.90
2022-11-01T00:29:57.432Z,72.00
2022-11-01T00:32:33.275Z,70.50
2022-11-01T00:35:11.417Z,67.20
2022-11-01T00:37:47.164Z,69.60
2022-11-01T00:40:23.074Z,64.40
2022-11-01T00:42:59.086Z,70.40
2022-11-01T00:45:35.081Z,62.00
2022-11-01T00:48:11.985Z,65.90
2022-11-01T00:50:48.032Z,62.60
2022-11-01T00:53:23.802Z,60.10
2022-11-01T00:56:04.683Z,58.90
2022-11-01T00:58:40.501Z,58.40
2022-11-01T01:01:16.725Z,61.20
2022-11-01T01:03:52.723Z,59.20
2022-11-01T01:06:28.822Z,63.00
2022-11-01T01:09:05.584Z,60.00
2022-11-01T01:11:44.076Z,67.60
2022-11-01T01:14:22.433Z,59.80
2022-11-01T01:17:02.418Z,57.40
2022-11-01T01:19:38.312Z,59.00
2022-11-01T01:22:14.283Z,50.50
2022-11-01T01:24:50.242Z,55.30
2022-11-01T01:27:26.672Z,62.30
2022-11-01T01:30:02.529Z,59.40
2022-11-01T01:32:39.205Z,53.00
2022-11-01T01:35:15.956Z,56.90
2022-11-01T01:37:52.548Z,55.90
2022-11-01T01:40:28.383Z,52.30
2022-11-01T01:43:04.254Z,51.80
2022-11-01T01:45:43.920Z,49.10
2022-11-01T01:48:27.164Z,53.90
2022-11-01T01:51:09.684Z,51.20
2022-11-01T01:53:51.558Z,50.80
2022-11-01T01:56:36.664Z,54.20
2022-11-01T01:59:14.024Z,53.10
2022-11-01T02:01:49.910Z,45.30
2022-11-01T02:04:35.398Z,51.80
2022-11-01T02:07:11.980Z,44.00
2022-11-01T02:09:49.048Z,44.60
2022-11-01T02:12:35.026Z,41.90
2022-11-01T02:15:17.134Z,48.90
2022-11-01T02:18:21.968Z,46.10
2022-11-01T02:21:47.772Z,45.30
2022-11-01T02:25:12.640Z,42.40
2022-11-01T02:28:20.512Z,44.50
2022-11-01T02:31:30.174Z,41.80
2022-11-01T02:34:16.118Z,39.90
2022-11-01T02:37:03.129Z,37.90
2022-11-01T02:39:49.932Z,41.10
2022-11-01T02:42:32.759Z,38.90
2022-11-01T02:45:27.970Z,34.80
2022-11-01T02:48:07.024Z,42.10
2022-11-01T02:50:50.701Z,37.90
2022-11-01T02:53:26.788Z,37.30
2022-11-01T02:56:03.073Z,38.40
2022-11-01T02:58:39.147Z,40.00
2022-11-01T03:01:22.058Z,38.00
2022-11-01T03:04:01.548Z,40.00
2022-11-01T03:06:47.375Z,38.40
2022-11-01T03:09:23.457Z,39.40
2022-11-01T03:12:08.537Z,39.20
2022-11-01T03:14:55.030Z,39.20
2022-11-01T03:17:42.267Z,38.90
2022-11-01T03:20:26.537Z,35.90
2022-11-01T03:23:06.614Z,40.10
2022-11-01T03:25:51.788Z,42.40
2022-11-01T03:28:34.921Z,40.40
2022-11-01T03:31:14.992Z,39.10
2022-11-01T03:33:57.563Z,43.00
2022-11-01T03:36:40.271Z,38.70
2022-11-01T03:39:23.205Z,42.00
2022-11-01T03:42:08.331Z,43.10
2022-11-01T03:44:48.648Z,41.20
2022-11-01T03:47:24.816Z,46.70
2022-11-01T03:50:19.712Z,45.20
2022-11-01T03:52:56.059Z,46.80
2022-11-01T03:55:32.108Z,45.40
2022-11-01T03:58:08.887Z,46.60
2022-11-01T04:00:47.594Z,41.50
2022-11-01T04:03:23.484Z,49.60
2022-11-01T04:05:59.327Z,41.80
2022-11-01T04:08:36.880Z,41.40
2022-11-01T04:11:15.278Z,41.10
2022-11-01T04:13:52.513Z,44.20
2022-11-01T04:16:47.801Z,47.60
2022-11-01T04:19:42.749Z,48.40
2022-11-01T04:22:22.076Z,49.90
2022-11-01T04:27:34.793Z,46.00
2022-11-01T04:30:13.895Z,52.00
2022-11-01T04:32:50.150Z,45.30
2022-11-01T04:35:26.837Z,49.50
2022-11-01T04:38:06.485Z,46.80
2022-11-01T04:40:43.452Z,48.10
2022-11-01T04:43:19.792Z,47.10
2022-11-01T04:46:00.717Z,50.30
2022-11-01T04:48:36.651Z,52.10
2022-11-01T04:51:13.607Z,60.60
2022-11-01T04:53:49.516Z,55.60
2022-11-01T04:56:25.536Z,55.00
2022-11-01T04:59:01.561Z,67.80
2022-11-01T05:01:38.236Z,70.20
2022-11-01T05:04:14.191Z,57.00
2022-11-01T05:06:49.981Z,61.60
2022-11-01T05:09:25.925Z,59.40
2022-11-01T05:12:01.682Z,65.80
2022-11-01T05:14:37.578Z,62.30
2022-11-01T05:17:13.277Z,59.70
2022-11-01T05:19:49.210Z,63.70
2022-11-01T05:22:25.026Z,68.50
2022-11-01T05:25:00.806Z,68.80
2022-11-01T05:27:36.720Z,62.00
2022-11-01T05:30:16.797Z,67.60
2022-11-01T05:32:56.502Z,67.10
2022-11-01T05:35:34.128Z,67.80
2022-11-01T05:38:10.767Z,68.50
2022-11-01T05:40:46.821Z,65.70
2022-11-01T05:43:22.648Z,85.50
2022-11-01T05:45:58.427Z,79.20
2022-11-01T05:48:34.491Z,66.90
2022-11-01T05:51:11.220Z,65.50
2022-11-01T05:53:48.915Z,91.70
2022-11-01T05:56:24.710Z,62.40
2022-11-01T05:59:00.449Z,67.30
2022-11-01T06:01:36.353Z,67.70
2022-11-01T06:04:12.332Z,65.00
2022-11-01T06:06:48.209Z,74.20
2022-11-01T06:09:23.926Z,64.80
2022-11-01T06:11:59.799Z,81.30
2022-11-01T06:17:16.499Z,72.10
2022-11-01T06:19:52.769Z,64.30
2022-11-01T06:22:28.507Z,66.30
2022-11-01T06:25:04.476Z,70.60
2022-11-01T06:27:40.392Z,60.60
2022-11-01T06:30:18.128Z,55.60
2022-11-01T06:32:53.988Z,63.60
2022-11-01T06:35:31.423Z,53.60
2022-11-01T06:38:10.348Z,58.60
2022-11-01T06:40:47.395Z,64.50
2022-11-01T06:43:23.608Z,50.50
2022-11-01T06:46:01.935Z,61.30
2022-11-01T06:48:38.670Z,64.80
2022-11-01T06:51:14.540Z,57.40
2022-11-01T06:53:50.494Z,54.80
2022-11-01T06:56:26.201Z,58.50
2022-11-01T06:59:01.974Z,58.00
2022-11-01T07:01:37.941Z,48.40
2022-11-01T07:04:14.333Z,51.20
2022-11-01T07:06:50.231Z,58.30
2022-11-01T07:09:26.441Z,48.30
2022-11-01T07:12:05.249Z,51.90
2022-11-01T07:14:41.427Z,47.80
2022-11-01T07:17:17.260Z,43.80
2022-11-01T07:19:53.144Z,41.60
2022-11-01T07:22:29.087Z,41.60
2022-11-01T07:25:05.744Z,44.90
2022-11-01T07:27:42.299Z,51.50
2022-11-01T07:30:19.305Z,48.20
2022-11-01T07:32:59.994Z,66.70
2022-11-01T07:35:36.785Z,43.00
2022-11-01T07:38:13.833Z,45.70
2022-11-01T07:40:52.424Z,46.20
2022-11-01T07:43:28.372Z,43.90
2022-11-01T07:46:07.187Z,39.90
2022-11-01T07:48:43.242Z,40.90
2022-11-01T07:51:19.485Z,38.70
2022-11-01T07:53:55.217Z,33.20
2022-11-01T07:56:31.015Z,38.80
2022-11-01T07:59:06.997Z,41.90
2022-11-01T08:01:43.000Z,35.70
2022-11-01T08:04:19.214Z,39.60
2022-11-01T08:06:55.113Z,36.60
2022-11-01T08:09:31.053Z,31.40
2022-11-01T08:12:07.670Z,34.90
2022-11-01T08:14:43.470Z,33.10
2022-11-01T08:17:19.545Z,33.60
2022-11-01T08:19:55.321Z,32.40
2022-11-01T08:22:31.192Z,36.90
2022-11-01T08:25:07.959Z,32.00
2022-11-01T08:27:43.801Z,35.00
2022-11-01T08:30:21.199Z,40.30
2022-11-01T08:33:02.997Z,36.60
2022-11-01T08:35:47.329Z,32.70
2022-11-01T08:38:25.910Z,32.10
2022-11-01T08:41:03.086Z,30.70
2022-11-01T08:43:40.660Z,35.00
2022-11-01T08:46:19.673Z,35.50
2022-11-01T08:48:56.365Z,36.10
2022-11-01T08:51:32.775Z,39.70
2022-11-01T08:54:12.396Z,41.60
2022-11-01T08:56:53.167Z,37.80
2022-11-01T08:59:31.988Z,47.90
2022-11-01T09:02:10.264Z,40.10
2022-11-01T09:04:46.416Z,38.90
2022-11-01T09:07:26.143Z,35.30
2022-11-01T09:10:02.123Z,42.70
2022-11-01T09:15:20.111Z,36.40
2022-11-01T09:17:56.060Z,33.50
2022-11-01T09:20:31.987Z,39.80
2022-11-01T09:23:08.211Z,34.90
2022-11-01T09:25:44.285Z,39.00
2022-11-01T09:28:20.503Z,36.30
2022-11-01T09:31:01.649Z,36.30
2022-11-01T09:33:54.822Z,37.60
2022-11-01T09:36:32.730Z,34.20
2022-11-01T09:39:08.853Z,37.20
2022-11-01T09:41:49.900Z,33.90
2022-11-01T09:44:31.936Z,37.80
2022-11-01T09:47:17.226Z,37.40
2022-11-01T09:50:10.847Z,34.20
2022-11-01T09:52:46.992Z,34.30
2022-11-01T09:55:42.958Z,33.20
2022-11-01T09:58:39.694Z,31.40
2022-11-01T10:01:41.383Z,28.30
2022-11-01T10:05:05.480Z,30.10
2022-11-01T10:07:52.316Z,32.00
2022-11-01T10:10:45.111Z,26.50
2022-11-01T10:13:45.237Z,29.20
2022-11-01T10:16:35.863Z,27.30
2022-11-01T10:19:18.191Z,28.50
2022-11-01T10:22:01.329Z,28.10
2022-11-01T10:24:44.273Z,28.30
2022-11-01T10:27:34.600Z,29.80
2022-11-01T10:30:19.921Z,29.80
2022-11-01T10:33:02.882Z,29.40
2022-11-01T10:35:45.798Z,31.60
2022-11-01T10:39:10.308Z,25.90
2022-11-01T10:41:41.141Z,26.30
2022-11-01T10:44:28.253Z,27.60
2022-11-01T10:47:12.307Z,29.00
2022-11-01T10:50:05.385Z,26.60
2022-11-01T10:52:56.252Z,28.30
2022-11-01T10:55:40.891Z,25.20
2022-11-01T10:58:30.035Z,27.80
2022-11-01T11:01:13.285Z,29.60
2022-11-01T11:03:51.897Z,26.50
2022-11-01T11:06:28.191Z,26.10
2022-11-01T11:09:05.856Z,24.80
2022-11-01T11:11:45.522Z,25.20
2022-11-01T11:14:24.031Z,26.50
2022-11-01T11:17:02.063Z,32.80
2022-11-01T11:19:43.324Z,25.80
2022-11-01T11:22:21.929Z,28.60
2022-11-01T11:25:02.925Z,28.20
2022-11-01T11:27:45.111Z,28.20
2022-11-01T11:30:36.399Z,21.50
2022-11-01T11:33:20.715Z,23.10
2022-11-01T11:36:04.024Z,24.70
2022-11-01T11:38:52.620Z,24.60
2022-11-01T11:41:39.152Z,24.90
2022-11-01T11:44:44.270Z,23.50
2022-11-01T11:47:28.445Z,23.00
2022-11-01T11:50:25.180Z,23.30
2022-11-01T11:53:16.950Z,23.20
2022-11-01T11:55:59.345Z,22.80
2022-11-01T11:58:42.721Z,22.30
2022-11-01T12:01:27.013Z,24.70
2022-11-01T12:04:16.169Z,24.90
2022-11-01T12:06:52.228Z,26.10
2022-11-01T12:09:49.517Z,21.40
2022-11-01T12:12:31.385Z,27.50
2022-11-01T12:15:28.938Z,23.20
2022-11-01T12:18:17.950Z,21.20
2022-11-01T12:20:56.881Z,25.80
2022-11-01T12:23:40.608Z,24.50
2022-11-01T12:26:22.702Z,24.00
2022-11-01T12:29:13.065Z,21.70
2022-11-01T12:31:52.443Z,22.60
2022-11-01T12:34:35.082Z,22.50
2022-11-01T12:37:21.496Z,22.20
2022-11-01T12:40:04.229Z,24.20
2022-11-01T12:42:51.301Z,26.60
2022-11-01T12:45:38.106Z,23.10
2022-11-01T12:48:32.847Z,25.80
2022-11-01T12:51:32.047Z,22.40
2022-11-01T12:54:16.190Z,25.00
2022-11-01T12:56:52.011Z,24.10
2022-11-01T12:59:35.162Z,23.70
2022-11-01T13:02:54.320Z,23.50
2022-11-01T13:05:44.891Z,27.30
2022-11-01T13:08:35.254Z,24.10
2022-11-01T13:11:25.199Z,25.20
2022-11-01T13:14:27.517Z,23.70
2022-11-01T13:17:16.052Z,23.70
2022-11-01T13:20:06.790Z,23.20
2022-11-01T13:22:54.857Z,22.20
2022-11-01T13:25:43.834Z,23.40
2022-11-01T13:29:00.544Z,20.00
2022-11-01T13:31:57.439Z,21.80
2022-11-01T13:34:52.400Z,21.20
2022-11-01T13:37:43.496Z,24.90
2022-11-01T13:40:34.037Z,26.50
2022-11-01T13:43:16.735Z,25.80
2022-11-01T13:46:59.778Z,20.00
2022-11-01T13:50:28.800Z,19.60
2022-11-01T13:53:16.881Z,18.50
2022-11-01T13:56:00.977Z,18.20
2022-11-01T13:58:40.217Z,18.20
2022-11-01T14:01:40.673Z,24.40
2022-11-01T14:04:59.868Z,22.50
2022-11-01T14:08:00.897Z,21.80
2022-11-01T14:10:53.860Z,19.40
2022-11-01T14:13:41.416Z,17.90
2022-11-01T14:16:35.043Z,18.00
2022-11-01T14:19:22.743Z,19.00
2022-11-01T14:22:01.391Z,19.60
2022-11-01T14:24:55.855Z,22.00
2022-11-01T14:27:48.811Z,15.60
2022-11-01T14:30:34.055Z,12.50
2022-11-01T14:33:16.109Z,19.80
2022-11-01T14:35:58.826Z,9.20
2022-11-01T14:38:42.270Z,10.00
2022-11-01T14:41:21.398Z,15.10
2022-11-01T14:44:03.835Z,11.80
2022-11-01T14:46:46.631Z,10.30
2022-11-01T14:49:34.889Z,12.80
2022-11-01T14:52:19.222Z,11.50
2022-11-01T14:55:08.090Z,12.30
2022-11-01T14:57:45.521Z,13.80
2022-11-01T15:00:36.461Z,12.40
2022-11-01T15:03:13.822Z,9.90
2022-11-01T15:05:53.684Z,11.40
2022-11-01T15:08:38.760Z,12.90
2022-11-01T15:11:14.887Z,16.20
2022-11-01T15:13:53.438Z,13.40
2022-11-01T15:16:30.164Z,14.40
2022-11-01T15:19:12.899Z,12.60
2022-11-01T15:21:49.233Z,10.40
2022-11-01T15:24:28.427Z,11.70
2022-11-01T15:27:14.897Z,10.90
2022-11-01T15:29:51.946Z,12.50
2022-11-01T15:32:32.741Z,15.60
2022-11-01T15:35:26.509Z,12.40
2022-11-01T15:38:02.366Z,13.00
2022-11-01T15:40:39.959Z,13.40
2022-11-01T15:43:24.844Z,12.30
2022-11-01T15:46:03.492Z,17.20
2022-11-01T15:48:46.938Z,13.70
2022-11-01T15:51:28.959Z,13.70
2022-11-01T15:54:17.313Z,13.30
2022-11-01T15:57:01.763Z,14.30
2022-11-01T15:59:51.297Z,12.70
2022-11-01T16:02:37.470Z,15.00
2022-11-01T16:05:18.456Z,16.00
2022-11-01T16:07:55.106Z,16.50
2022-11-01T16:10:33.893Z,13.50
2022-11-01T16:13:17.150Z,17.30
2022-11-01T16:16:11.430Z,13.30
2022-11-01T16:18:48.089Z,14.20
2022-11-01T16:21:36.316Z,15.90
2022-11-01T16:24:22.950Z,16.00
2022-11-01T16:27:03.780Z,15.10
2022-11-01T16:29:53.899Z,14.90
2022-11-01T16:32:33.802Z,14.10
2022-11-01T16:35:35.450Z,23.30
2022-11-01T16:38:43.240Z,15.70
2022-11-01T16:41:24.580Z,15.90
2022-11-01T16:44:04.107Z,16.40
2022-11-01T16:46:41.348Z,14.50
2022-11-01T16:49:27.918Z,13.80
2022-11-01T16:52:09.880Z,16.30
2022-11-01T16:54:49.489Z,15.10
2022-11-01T16:57:30.594Z,14.60
2022-11-01T17:00:12.512Z,18.70
2022-11-01T17:02:57.004Z,16.40
2022-11-01T17:05:32.901Z,21.50
2022-11-01T17:08:12.070Z,16.50
2022-11-01T17:10:49.110Z,19.40
2022-11-01T17:13:25.100Z,17.00
2022-11-01T17:16:00.944Z,18.60
2022-11-01T17:18:42.726Z,18.10
2022-11-01T17:21:18.437Z,16.00
2022-11-01T17:23:54.856Z,19.30
2022-11-01T17:26:30.723Z,18.00
2022-11-01T17:29:06.974Z,17.50
2022-11-01T17:31:42.946Z,18.60
2022-11-01T17:34:18.825Z,24.00
2022-11-01T17:36:55.769Z,18.10
2022-11-01T17:39:33.483Z,19.90
2022-11-01T17:42:10.244Z,18.10
2022-11-01T17:45:07.574Z,19.50
2022-11-01T17:47:43.869Z,25.10
2022-11-01T17:50:20.515Z,19.80
2022-11-01T17:52:56.782Z,21.60
2022-11-01T17:55:34.529Z,20.10
2022-11-01T17:58:12.585Z,23.00
2022-11-01T18:00:51.387Z,22.60
2022-11-01T18:03:28.641Z,22.70
2022-11-01T18:06:04.766Z,22.50
2022-11-01T18:08:49.763Z,20.40
2022-11-01T18:11:47.173Z,23.20
2022-11-01T18:14:49.018Z,20.60
2022-11-01T18:17:50.277Z,26.80
2022-11-01T18:20:45.986Z,21.00
2022-11-01T18:23:25.997Z,23.20
2022-11-01T18:26:02.253Z,24.10
2022-11-01T18:28:38.215Z,23.60
2022-11-01T18:31:26.843Z,24.50
2022-11-01T18:34:14.982Z,21.80
2022-11-01T18:36:56.575Z,22.70
2022-11-01T18:39:40.622Z,26.70
2022-11-01T18:42:19.587Z,23.20
2022-11-01T18:44:59.397Z,25.60
2022-11-01T18:47:46.621Z,22.70
2022-11-01T18:50:28.433Z,22.70
2022-11-01T18:55:49.685Z,22.20
2022-11-01T18:58:29.967Z,30.30
2022-11-01T19:01:15.122Z,23.30
2022-11-01T19:04:02.576Z,24.10
2022-11-01T19:06:38.845Z,24.60
2022-11-01T19:09:27.812Z,24.80
2022-11-01T19:12:16.867Z,35.10
2022-11-01T19:15:00.845Z,25.80
2022-11-01T19:17:43.488Z,25.20
2022-11-01T19:20:28.953Z,30.20
2022-11-01T19:23:10.583Z,26.70
2022-11-01T19:25:47.903Z,27.20
2022-11-01T19:28:35.193Z,26.90
2022-11-01T19:31:26.302Z,26.20
2022-11-01T19:34:06.493Z,28.50
2022-11-01T19:36:45.317Z,31.00
2022-11-01T19:39:37.194Z,27.60
2022-11-01T19:42:27.837Z,26.50
2022-11-01T19:45:29.088Z,30.90
2022-11-01T19:48:11.132Z,26.20
2022-11-01T19:53:34.050Z,25.60
2022-11-01T19:56:14.232Z,27.90
2022-11-01T19:58:54.806Z,26.40
2022-11-01T20:01:55.035Z,27.90
2022-11-01T20:04:35.286Z,27.10
2022-11-01T20:07:20.263Z,25.90
2022-11-01T20:09:58.906Z,27.70
2022-11-01T20:12:35.004Z,30.20
2022-11-01T20:15:13.168Z,26.90
2022-11-01T20:17:49.116Z,24.60
2022-11-01T20:20:25.738Z,28.80
2022-11-01T20:23:24.779Z,29.40
2022-11-01T20:25:58.788Z,26.30
2022-11-01T20:28:35.837Z,28.10
2022-11-01T20:31:11.741Z,27.80
2022-11-01T20:33:48.060Z,27.50
2022-11-01T20:36:25.371Z,28.90
2022-11-01T20:39:01.393Z,29.40
2022-11-01T20:41:37.412Z,31.30
2022-11-01T20:44:13.528Z,31.90
2022-11-01T20:46:49.806Z,28.20
2022-11-01T20:49:25.970Z,30.90
2022-11-01T20:52:26.137Z,28.50
2022-11-01T20:55:00.558Z,33.60
2022-11-01T20:57:36.565Z,25.70
2022-11-01T21:00:18.581Z,28.10
2022-11-01T21:02:57.503Z,27.60
2022-11-01T21:05:36.948Z,29.50
2022-11-01T21:08:24.392Z,26.50
2022-11-01T21:11:03.244Z,26.30
2022-11-01T21:13:46.364Z,28.30
2022-11-01T21:16:31.739Z,27.80
2022-11-01T21:19:18.842Z,31.20
2022-11-01T21:21:58.920Z,29.20
2022-11-01T21:24:42.120Z,31.50
2022-11-01T21:27:34.254Z,25.00
2022-11-01T21:30:24.795Z,29.30
2022-11-01T21:33:01.112Z,26.30
2022-11-01T21:35:43.139Z,27.40
2022-11-01T21:38:43.633Z,27.00
2022-11-01T21:41:35.549Z,25.50
2022-11-01T21:44:38.881Z,29.80
2022-11-01T21:47:24.782Z,31.10
2022-11-01T21:50:00.972Z,27.30
2022-11-01T21:52:36.691Z,28.10
2022-11-01T21:55:13.543Z,29.60
2022-11-01T21:57:49.324Z,32.10
2022-11-01T22:00:25.716Z,28.40
2022-11-01T22:03:01.987Z,30.70
2022-11-01T22:05:38.454Z,32.60
2022-11-01T22:08:14.177Z,30.50
2022-11-01T22:10:49.962Z,30.30
2022-11-01T22:13:25.685Z,33.70
2022-11-01T22:16:01.559Z,29.60
2022-11-01T22:18:37.297Z,32.30
2022-11-01T22:21:13.239Z,32.10
2022-11-01T22:23:48.943Z,30.00
2022-11-01T22:26:25.679Z,33.10
2022-11-01T22:29:02.013Z,36.20
2022-11-01T22:31:37.985Z,31.70
2022-11-01T22:34:13.769Z,35.60
2022-11-01T22:36:49.666Z,35.20
2022-11-01T22:39:30.552Z,32.40
2022-11-01T22:42:14.374Z,36.10
2022-11-01T22:44:52.456Z,32.70
2022-11-01T22:47:31.839Z,31.20
2022-11-01T22:50:14.698Z,31.20
2022-11-01T22:52:51.743Z,35.80
2022-11-01T22:55:42.764Z,32.20
2022-11-01T22:58:38.826Z,35.10
2022-11-01T23:01:27.716Z,32.70
2022-11-01T23:04:22.007Z,32.10
2022-11-01T23:07:02.408Z,34.30
2022-11-01T23:09:38.525Z,33.50
2022-11-01T23:12:44.281Z,33.50
2022-11-01T23:15:34.228Z,36.40
2022-11-01T23:18:22.247Z,32.20
2022-11-01T23:21:06.653Z,36.70
2022-11-01T23:23:47.225Z,29.80
2022-11-01T23:26:25.906Z,32.90
2022-11-01T23:29:03.622Z,36.60
2022-11-01T23:31:39.703Z,30.70
2022-11-01T23:34:16.295Z,31.30
2022-11-01T23:36:52.154Z,35.40
2022-11-01T23:39:34.209Z,29.60
2022-11-01T23:42:20.382Z,32.80
2022-11-01T23:44:59.556Z,30.20
2022-11-01T23:47:41.743Z,29.50
2022-11-01T23:50:23.777Z,29.40
2022-11-01T23:53:04.285Z,28.00
2022-11-01T23:55:48.928Z,25.00
2022-11-01T23:58:32.736Z,28.40
